Portada
METAR-TAF:

METAR-TAF

Aeroports :

Bangkok, Tailàndia

latitud: 13-54-45N, longitud: 100-36-24E, altitud: 4 m

Observació

L'informe es va fer fa 34 minuts, a les 08:30 UTC
Vent 10 kt del Nord/Nord-Oest
Temperatura 31°C
Humitat 63%
Pressió 1006 hPa
Visibilitat: 9000 m
Escasses núvols a una alçada de 2000 ft

METAR: VTBD 280830Z 34010KT 9000 FEW020 31/23 Q1006 NOSIG

Hora: 16:04 (09:04 UTC)

Pronòstic

L'informe es va fer fa 4 hores i 4 minuts, a les 05:00 UTC
Pronòstic vàlid del 28 a les 06 UTC al 29 a les 12 UTC
Vent 8 kt del Nord/Nord-Oest
Visibilitat 10 km o més
Escasses núvols a una alçada de 2000 ft
Evolucionant progressivament
l' 28 a les 14 UTC al 28 a les 16 UTC
Vent 8 kt del Oest
Visibilitat: 8000 m
Evolucionant progressivament
l' 29 a les 02 UTC al 29 a les 04 UTC
Vent 8 kt del Nord/Nord-Est
Visibilitat 10 km o més

TAF: VTBD 280500Z 2806/2912 33008KT 9999 FEW020 BECMG 2814/2816 27008KT 8000 BECMG 2902/2904 03008KT 9999

Observacions i pronòstics meteorològics de més de 4000 aeroports (METAR i TAF).

Les estacions disponibles són els punts grocs i vermells al mapa.

Posi el ratolí al punt desitjat per veure el nom de l'estació.

Feu clic per veure les observacions i els pronòstics meteorològics.

Per canviar el mapa: feu clic els botons verds amb una creu de color negre per apropar; al botó verd amb un guió per allunyar la imatge; o en les fletxes verdes per a mapes adjacents.


METAR-TAF: